Time;durP1;ratioP1;P1;durP2;ratioP2;P2;SDS_P1;SDS_P2;PMS_P1;PMS_P2;Temp;Humidity;BMP_temperature;BMP_pressure;BME280_temperature;BME280_humidity;BME280_pressure;Samples;Min_cycle;Max_cycle;Signal;HPM_P1;HPM_P2
2022/07/25 00:01:21;;;;;;;;;;;;;;;20.93;61.01;98943.81;4927126;29;19962;-67
2022/07/25 00:03:48;;;;;;;;;;;;;;;20.94;61.01;98948.19;4928632;29;19938;-65
2022/07/25 00:06:14;;;;;;;;;;;;;;;20.92;60.77;98943.00;4930771;29;20026;-66
2022/07/25 00:08:40;;;;;;;;;;;;;;;20.87;60.95;98939.72;4926689;29;20383;-66
2022/07/25 00:11:06;;;;;;;;;;;;;;;20.88;60.93;98942.13;4926809;29;19973;-65
2022/07/25 00:13:32;;;;;;;;;;;;;;;20.94;60.28;98937.09;4926309;29;19931;-66
2022/07/25 00:15:58;;;;;;;;;;;;;;;20.99;60.17;98942.34;4927956;29;20045;-65
2022/07/25 00:18:23;;;;;;;;;;;;;;;21.01;60.16;98934.44;4930693;29;19938;-64
2022/07/25 00:20:51;;;;;;;;;;;;;;;20.95;59.93;98931.16;4929623;29;20367;-66
2022/07/25 00:23:16;;;;;;;;;;;;;;;20.85;60.30;98928.16;4930427;29;19930;-64
2022/07/25 00:25:42;;;;;;;;;;;;;;;20.76;60.61;98933.91;4928544;29;20262;-65
2022/07/25 00:28:08;;;;;;;;;;;;;;;20.72;60.82;98928.28;4927692;29;19931;-65
2022/07/25 00:30:34;;;;;;;;;;;;;;;20.67;61.11;98920.25;4943076;29;19977;-66
2022/07/25 00:32:59;;;;;;;;;;;;;;;20.67;61.24;98918.25;4929373;29;19946;-65
2022/07/25 00:35:25;;;;;;;;;;;;;;;20.67;61.41;98923.81;4929431;29;19963;-66
2022/07/25 00:37:53;;;;;;;;;;;;;;;20.60;61.48;98920.88;4928290;29;20029;-65
2022/07/25 00:40:19;;;;;;;;;;;;;;;20.57;61.67;98918.84;4945206;29;19930;-64
2022/07/25 00:42:45;;;;;;;;;;;;;;;20.51;61.69;98917.50;4928158;29;20310;-66
2022/07/25 00:45:10;;;;;;;;;;;;;;;20.48;61.86;98915.47;4928808;29;20569;-65
2022/07/25 00:47:36;;;;;;;;;;;;;;;20.44;62.18;98914.59;4927544;29;20025;-65
2022/07/25 00:50:02;;;;;;;;;;;;;;;20.38;62.31;98919.63;4928751;29;20343;-65
2022/07/25 00:52:29;;;;;;;;;;;;;;;20.39;62.51;98908.16;4926705;29;19930;-65
2022/07/25 00:54:56;;;;;;;;;;;;;;;20.37;62.60;98913.28;4930598;29;19990;-65
2022/07/25 00:57:22;;;;;;;;;;;;;;;20.30;62.65;98902.00;4929556;29;19931;-67
2022/07/25 00:59:47;;;;;;;;;;;;;;;20.25;62.72;98905.84;4927614;29;19931;-65
2022/07/25 01:02:13;;;;;;;;;;;;;;;20.20;62.77;98902.56;4944974;28;19967;-66
2022/07/25 01:04:39;;;;;;;;;;;;;;;20.17;62.89;98908.84;4926436;29;20036;-67
2022/07/25 01:07:05;;;;;;;;;;;;;;;20.17;62.81;98903.28;4925341;29;20443;-67
2022/07/25 01:09:31;;;;;;;;;;;;;;;20.23;62.62;98908.19;4928938;29;19931;-65
2022/07/25 01:11:58;;;;;;;;;;;;;;;20.24;63.07;98911.78;4942573;29;19977;-66
2022/07/25 01:14:24;;;;;;;;;;;;;;;20.23;63.29;98910.97;4927000;29;19985;-66
2022/07/25 01:16:50;;;;;;;;;;;;;;;20.24;63.65;98911.78;4929865;29;20190;-66
2022/07/25 01:19:15;;;;;;;;;;;;;;;20.21;63.56;98913.31;4934456;29;19931;-65
2022/07/25 01:21:43;;;;;;;;;;;;;;;20.17;63.98;98920.75;4932934;29;19966;-67
2022/07/25 01:24:08;;;;;;;;;;;;;;;20.15;64.57;98925.84;4931885;29;20095;-65
2022/07/25 01:26:34;;;;;;;;;;;;;;;20.17;64.79;98920.75;4932470;29;19937;-65
2022/07/25 01:29:00;;;;;;;;;;;;;;;20.24;65.24;98929.22;4931569;29;20346;-66
2022/07/25 01:31:26;;;;;;;;;;;;;;;20.25;64.93;98916.97;4931088;29;20305;-64
2022/07/25 01:33:51;;;;;;;;;;;;;;;20.26;64.78;98917.78;4931881;29;19930;-64
2022/07/25 01:36:17;;;;;;;;;;;;;;;20.30;65.36;98917.88;4930302;29;19935;-65
2022/07/25 01:38:44;;;;;;;;;;;;;;;20.25;65.75;98930.03;4931723;29;19953;-65
2022/07/25 01:41:10;;;;;;;;;;;;;;;20.20;66.23;98931.13;4931633;29;20030;-65
2022/07/25 01:43:36;;;;;;;;;;;;;;;20.16;66.12;98933.00;4931919;29;19931;-65
2022/07/25 01:46:02;;;;;;;;;;;;;;;20.15;66.46;98934.19;4930483;29;19931;-64
2022/07/25 01:48:28;;;;;;;;;;;;;;;20.15;66.71;98933.38;4933758;29;19930;-64
2022/07/25 01:50:54;;;;;;;;;;;;;;;20.16;66.56;98933.00;4932762;29;19930;-64
2022/07/25 01:53:19;;;;;;;;;;;;;;;20.18;67.17;98927.91;4929803;29;19937;-64
2022/07/25 01:55:47;;;;;;;;;;;;;;;20.19;67.71;98932.28;4930068;29;20236;-66
2022/07/25 01:58:12;;;;;;;;;;;;;;;20.17;68.02;98926.31;4931657;29;19990;-65
2022/07/25 02:00:39;;;;;;;;;;;;;;;20.16;68.23;98932.19;4947819;28;20026;-66
2022/07/25 02:05:49;;;;;;;;;;;;;;;20.17;68.83;98931.03;4933272;29;19937;-64
2022/07/25 02:08:15;;;;;;;;;;;;;;;20.17;69.02;98929.06;4931114;29;19935;-65
2022/07/25 02:10:40;;;;;;;;;;;;;;;20.17;69.25;98933.81;4931388;28;20054;-67
2022/07/25 02:13:08;;;;;;;;;;;;;;;20.17;68.73;98923.53;4913331;29;20318;-66
2022/07/25 02:15:53;;;;;;;;;;;;;;;20.22;68.84;98936.31;4924524;29;19986;-65
2022/07/25 02:18:19;;;;;;;;;;;;;;;20.22;68.64;98926.00;4913133;29;19931;-64
2022/07/25 02:20:45;;;;;;;;;;;;;;;20.27;69.03;98922.16;4912615;29;20006;-66
2022/07/25 02:23:11;;;;;;;;;;;;;;;20.31;69.08;98925.03;4924516;29;20033;-65
2022/07/25 02:25:36;;;;;;;;;;;;;;;20.35;68.86;98926.69;4930231;29;19966;-65
2022/07/25 02:28:03;;;;;;;;;;;;;;;20.38;68.56;98922.41;4930313;29;20398;-64
2022/07/25 02:30:30;;;;;;;;;;;;;;;20.41;68.16;98932.75;4931520;29;19931;-66
2022/07/25 02:32:56;;;;;;;;;;;;;;;20.47;67.94;98916.63;4929885;29;19931;-66
2022/07/25 02:35:21;;;;;;;;;;;;;;;20.52;67.32;98921.88;4931569;29;19931;-66
2022/07/25 02:37:47;;;;;;;;;;;;;;;20.59;67.03;98921.25;4929748;29;20445;-64
2022/07/25 02:40:13;;;;;;;;;;;;;;;20.62;66.80;98928.88;4928289;29;20017;-66
2022/07/25 02:42:39;;;;;;;;;;;;;;;20.66;66.39;98924.97;4929222;29;19937;-66
2022/07/25 02:45:05;;;;;;;;;;;;;;;20.71;65.90;98921.09;4931117;29;20407;-64
2022/07/25 02:47:32;;;;;;;;;;;;;;;20.74;65.93;98930.69;4929803;28;19938;-65
2022/07/25 02:49:58;;;;;;;;;;;;;;;20.77;65.25;98922.44;4930543;29;20592;-67
2022/07/25 02:52:24;;;;;;;;;;;;;;;20.79;64.93;98922.06;4929315;29;20034;-67
2022/07/25 02:54:49;;;;;;;;;;;;;;;20.78;64.55;98921.28;4929439;29;20351;-65
2022/07/25 02:57:15;;;;;;;;;;;;;;;20.82;64.24;98915.81;4930036;29;20318;-65
2022/07/25 02:59:41;;;;;;;;;;;;;;;20.86;63.91;98922.25;4928708;29;19938;-66
2022/07/25 03:02:07;;;;;;;;;;;;;;;20.93;63.62;98916.03;4930511;29;19942;-67
2022/07/25 03:04:34;;;;;;;;;;;;;;;20.98;63.35;98907.41;4929067;29;20374;-67
2022/07/25 03:06:59;;;;;;;;;;;;;;;21.02;63.55;98916.59;4931213;29;20393;-67
2022/07/25 03:09:25;;;;;;;;;;;;;;;21.02;63.11;98916.59;4927238;29;20123;-66
2022/07/25 03:11:51;;;;;;;;;;;;;;;21.01;63.45;98916.97;4927098;29;20794;-67
2022/07/25 03:14:17;;;;;;;;;;;;;;;21.01;63.20;98917.78;4930455;29;19981;-65
2022/07/25 03:16:42;;;;;;;;;;;;;;;21.06;63.01;98909.13;4929795;29;19981;-65
2022/07/25 03:19:09;;;;;;;;;;;;;;;21.11;62.98;98919.97;4942794;28;20425;-66
2022/07/25 03:21:36;;;;;;;;;;;;;;;21.19;62.90;98915.34;4932083;29;20314;-67
2022/07/25 03:24:02;;;;;;;;;;;;;;;21.20;62.88;98916.94;4928940;29;19954;-66
2022/07/25 03:26:28;;;;;;;;;;;;;;;21.21;63.27;98918.56;4929587;29;19958;-67
2022/07/25 03:28:54;;;;;;;;;;;;;;;21.19;63.20;98920.91;4929320;29;20457;-66
2022/07/25 03:31:19;;;;;;;;;;;;;;;21.21;63.01;98921.34;4945692;29;19938;-67
2022/07/25 03:33:45;;;;;;;;;;;;;;;21.25;62.75;98913.84;4930477;29;20025;-67
2022/07/25 03:36:11;;;;;;;;;;;;;;;21.35;62.82;98908.88;4931126;28;19938;-66
2022/07/25 03:38:38;;;;;;;;;;;;;;;21.41;62.67;98918.50;4929032;29;19958;-65
2022/07/25 03:41:04;;;;;;;;;;;;;;;21.44;62.74;98916.97;4929038;29;19935;-64
2022/07/25 03:43:30;;;;;;;;;;;;;;;21.46;62.72;98915.41;4929610;29;19986;-66
2022/07/25 03:45:56;;;;;;;;;;;;;;;21.49;62.87;98908.31;4930580;29;19935;-66
2022/07/25 03:48:21;;;;;;;;;;;;;;;21.54;62.79;98919.13;4929208;29;19938;-65
2022/07/25 03:50:47;;;;;;;;;;;;;;;21.56;62.50;98916.78;4930559;29;19946;-66
2022/07/25 03:53:13;;;;;;;;;;;;;;;21.62;62.42;98912.53;4926042;29;19931;-66
2022/07/25 03:55:40;;;;;;;;;;;;;;;21.68;62.28;98916.63;4931882;29;19938;-66
2022/07/25 03:58:06;;;;;;;;;;;;;;;21.75;61.80;98915.94;4927827;29;20420;-66
2022/07/25 04:00:32;;;;;;;;;;;;;;;21.81;61.59;98908.91;4928496;29;19931;-65
2022/07/25 04:02:57;;;;;;;;;;;;;;;21.89;61.56;98917.34;4931321;29;19931;-67
2022/07/25 04:05:23;;;;;;;;;;;;;;;21.93;61.39;98916.22;4930104;29;20311;-68
2022/07/25 04:07:49;;;;;;;;;;;;;;;22.00;61.44;98923.06;4928189;29;19938;-67
2022/07/25 04:10:15;;;;;;;;;;;;;;;22.02;61.31;98913.19;4929972;29;20458;-67
2022/07/25 04:12:42;;;;;;;;;;;;;;;22.01;61.44;98916.31;4928934;29;19931;-67
2022/07/25 04:15:09;;;;;;;;;;;;;;;21.95;61.62;98911.09;4927911;29;19931;-67
2022/07/25 04:17:35;;;;;;;;;;;;;;;21.96;61.46;98912.69;4928179;29;19934;-65
2022/07/25 04:20:00;;;;;;;;;;;;;;;22.03;61.13;98914.78;4930859;29;19939;-66
2022/07/25 04:22:26;;;;;;;;;;;;;;;22.00;61.42;98909.16;4929578;29;19935;-67
2022/07/25 04:24:52;;;;;;;;;;;;;;;21.96;61.39;98909.13;4927653;29;20296;-67
2022/07/25 04:27:18;;;;;;;;;;;;;;;21.95;61.66;98913.09;4927890;29;19937;-66
2022/07/25 04:29:45;;;;;;;;;;;;;;;22.02;61.38;98913.19;4943836;28;20397;-67
2022/07/25 04:32:12;;;;;;;;;;;;;;;22.02;61.52;98910.41;4927620;29;19966;-67
2022/07/25 04:34:38;;;;;;;;;;;;;;;22.06;61.39;98908.47;4941616;28;20423;-65
2022/07/25 04:37:03;;;;;;;;;;;;;;;22.09;61.27;98904.13;4929845;29;20025;-66
2022/07/25 04:39:29;;;;;;;;;;;;;;;22.16;60.93;98907.03;4930428;29;19931;-66
2022/07/25 04:41:55;;;;;;;;;;;;;;;22.17;61.06;98905.06;4930169;29;19935;-67
2022/07/25 04:44:20;;;;;;;;;;;;;;;22.20;60.85;98902.31;4928031;28;19990;-67
2022/07/25 04:46:48;;;;;;;;;;;;;;;22.22;61.09;98907.50;4930829;29;19931;-66
2022/07/25 04:49:13;;;;;;;;;;;;;;;22.26;60.72;98902.81;4931376;28;19989;-66
2022/07/25 04:51:39;;;;;;;;;;;;;;;22.29;60.87;98912.38;4926988;29;19970;-67
2022/07/25 04:54:05;;;;;;;;;;;;;;;22.36;60.63;98912.50;4912112;29;19994;-66
2022/07/25 04:56:31;;;;;;;;;;;;;;;22.27;60.47;98901.63;4915985;29;20191;-67
2022/07/25 04:58:56;;;;;;;;;;;;;;;22.44;60.26;98916.19;4914805;29;19934;-67
2022/07/25 05:01:22;;;;;;;;;;;;;;;22.49;60.42;98915.88;4914917;29;19931;-66
2022/07/25 05:03:49;;;;;;;;;;;;;;;22.52;60.23;98907.56;4933816;29;19930;-65
2022/07/25 05:06:15;;;;;;;;;;;;;;;22.51;60.06;98902.38;4931948;29;19937;-66
2022/07/25 05:08:41;;;;;;;;;;;;;;;22.56;60.03;98907.63;4934295;29;19930;-66
2022/07/25 05:11:06;;;;;;;;;;;;;;;22.64;59.92;98917.66;4934375;29;20213;-66
2022/07/25 05:13:32;;;;;;;;;;;;;;;22.61;60.12;98914.81;4933027;28;20395;-67
2022/07/25 05:15:58;;;;;;;;;;;;;;;22.61;60.08;98910.06;4927010;29;20022;-67
2022/07/25 05:18:24;;;;;;;;;;;;;;;22.73;59.83;98908.22;4932032;29;20029;-66
2022/07/25 05:20:51;;;;;;;;;;;;;;;22.86;59.30;98906.78;4932170;29;20430;-65
2022/07/25 05:23:17;;;;;;;;;;;;;;;22.93;59.13;98909.66;4948322;29;20310;-65
2022/07/25 05:25:43;;;;;;;;;;;;;;;22.92;58.72;98910.84;4931509;29;20385;-65
2022/07/25 05:28:09;;;;;;;;;;;;;;;22.99;58.48;98907.34;4929385;29;19931;-65
2022/07/25 05:30:34;;;;;;;;;;;;;;;23.06;58.67;98910.19;4931799;29;19955;-67
2022/07/25 05:33:00;;;;;;;;;;;;;;;23.17;58.38;98910.28;4931850;29;20398;-66
2022/07/25 05:35:26;;;;;;;;;;;;;;;23.29;57.90;98920.44;4930836;29;20107;-67
2022/07/25 05:37:53;;;;;;;;;;;;;;;23.46;57.37;98905.03;4911090;29;19931;-65
2022/07/25 05:40:19;;;;;;;;;;;;;;;23.66;56.76;98907.63;4926942;29;19931;-67
2022/07/25 05:42:45;;;;;;;;;;;;;;;23.81;56.50;98907.75;4913081;29;19961;-67
2022/07/25 05:45:10;;;;;;;;;;;;;;;24.11;55.53;98910.38;4914874;29;19935;-66
2022/07/25 05:47:36;;;;;;;;;;;;;;;24.34;54.19;98915.69;4933397;29;19937;-68
2022/07/25 05:50:02;;;;;;;;;;;;;;;24.45;53.93;98912.19;4933412;29;19931;-66
2022/07/25 05:52:29;;;;;;;;;;;;;;;24.59;53.80;98909.47;4933064;29;19931;-67
2022/07/25 05:54:56;;;;;;;;;;;;;;;24.67;53.52;98906.69;4926340;29;19990;-67
2022/07/25 05:57:22;;;;;;;;;;;;;;;24.74;53.23;98906.69;4933087;29;19953;-68
2022/07/25 05:59:48;;;;;;;;;;;;;;;24.79;53.34;98909.16;4931978;29;20509;-67
2022/07/25 06:02:13;;;;;;;;;;;;;;;24.83;53.23;98892.41;4931227;29;20422;-67
2022/07/25 06:04:40;;;;;;;;;;;;;;;24.85;52.80;98892.81;4932428;29;20330;-67
2022/07/25 06:07:06;;;;;;;;;;;;;;;24.76;52.97;98899.56;4926844;29;19962;-67
2022/07/25 06:09:32;;;;;;;;;;;;;;;24.69;53.39;98902.31;4927464;29;19930;-67
2022/07/25 06:11:59;;;;;;;;;;;;;;;24.70;53.03;98898.31;4925377;29;19931;-68
2022/07/25 06:14:24;;;;;;;;;;;;;;;24.65;52.97;98904.28;4919395;29;20212;-67
2022/07/25 06:16:50;;;;;;;;;;;;;;;24.59;52.70;98903.88;4925308;29;20501;-67
2022/07/25 06:19:16;;;;;;;;;;;;;;;24.70;52.46;98892.75;4926514;28;19938;-68
2022/07/25 06:21:42;;;;;;;;;;;;;;;24.91;52.09;98889.25;4931156;29;20398;-67
2022/07/25 06:24:08;;;;;;;;;;;;;;;25.06;51.86;98889.28;4933023;29;19930;-67
2022/07/25 06:26:36;;;;;;;;;;;;;;;25.33;51.41;98895.34;4933184;29;20427;-67
2022/07/25 06:29:03;;;;;;;;;;;;;;;25.69;50.35;98886.19;4933703;29;19930;-67
2022/07/25 06:31:29;;;;;;;;;;;;;;;25.91;49.67;98891.78;4934227;29;20010;-68
2022/07/25 06:33:54;;;;;;;;;;;;;;;25.99;49.33;98893.38;4933197;29;20422;-66
2022/07/25 06:36:20;;;;;;;;;;;;;;;26.14;48.90;98891.34;4933672;28;19966;-66
2022/07/25 06:38:46;;;;;;;;;;;;;;;26.36;47.81;98898.91;4926128;29;20292;-66
2022/07/25 06:41:15;;;;;;;;;;;;;;;26.36;47.15;98884.91;4926277;29;20033;-67
2022/07/25 06:43:41;;;;;;;;;;;;;;;26.50;46.31;98889.66;4915626;29;20017;-66
2022/07/25 06:46:08;;;;;;;;;;;;;;;26.65;45.86;98887.63;4932662;29;20418;-67
2022/07/25 06:48:34;;;;;;;;;;;;;;;26.68;45.95;98884.00;4928234;29;20350;-65
2022/07/25 06:50:59;;;;;;;;;;;;;;;26.79;45.29;98887.56;4929472;29;19931;-66
2022/07/25 06:53:25;;;;;;;;;;;;;;;26.82;45.58;98891.53;4580724;29;10000533;-66
2022/07/25 06:55:51;;;;;;;;;;;;;;;26.84;45.36;98886.31;4912859;29;19976;-66
2022/07/25 06:58:17;;;;;;;;;;;;;;;26.47;45.69;98871.69;4914040;29;19935;-66
2022/07/25 07:00:43;;;;;;;;;;;;;;;26.43;46.39;98884.88;4923904;29;20536;-65
2022/07/25 07:03:10;;;;;;;;;;;;;;;26.71;45.67;98885.97;4910423;29;19931;-66
2022/07/25 07:05:36;;;;;;;;;;;;;;;27.07;44.85;98887.84;4917915;29;19971;-64
2022/07/25 07:08:02;;;;;;;;;;;;;;;27.48;44.54;98891.97;4906488;29;19931;-65
2022/07/25 07:10:28;;;;;;;;;;;;;;;27.50;43.99;98884.75;4932528;29;19931;-65
2022/07/25 07:13:04;;;;;;;;;;;;;;;27.45;44.09;98885.97;4924854;29;19974;-66
2022/07/25 07:15:30;;;;;;;;;;;;;;;27.49;44.12;98891.56;4925024;29;19953;-66
2022/07/25 07:17:55;;;;;;;;;;;;;;;27.48;44.46;98886.34;4924909;29;20021;-67
2022/07/25 07:20:22;;;;;;;;;;;;;;;27.29;44.59;98886.47;4923723;28;19931;-65
2022/07/25 07:22:48;;;;;;;;;;;;;;;26.95;45.26;98883.50;4910592;29;19966;-67
2022/07/25 07:25:15;;;;;;;;;;;;;;;26.70;46.02;98890.00;4907047;29;19971;-65
2022/07/25 07:27:41;;;;;;;;;;;;;;;26.79;45.72;98889.53;4918410;29;19930;-66
2022/07/25 07:30:08;;;;;;;;;;;;;;;26.97;45.62;98903.53;4922166;29;19953;-65
2022/07/25 07:32:34;;;;;;;;;;;;;;;26.93;45.93;98897.09;4908532;29;19980;-65
2022/07/25 07:34:59;;;;;;;;;;;;;;;26.86;45.94;98897.97;4916066;29;19970;-68
2022/07/25 07:37:26;;;;;;;;;;;;;;;26.84;45.92;98900.31;4919985;29;20478;-65
2022/07/25 07:39:52;;;;;;;;;;;;;;;26.67;46.37;98894.41;4918981;29;19931;-66
2022/07/25 07:42:18;;;;;;;;;;;;;;;26.36;46.91;98882.91;4925705;29;19938;-66
2022/07/25 07:44:44;;;;;;;;;;;;;;;26.28;47.28;98893.31;4925984;29;19931;-67
2022/07/25 07:47:09;;;;;;;;;;;;;;;26.29;47.47;98896.94;4928806;29;19931;-67
2022/07/25 07:49:35;;;;;;;;;;;;;;;26.43;47.29;98894.09;4913579;29;19935;-66
2022/07/25 07:52:01;;;;;;;;;;;;;;;26.43;47.24;98888.50;4921986;29;19946;-67
2022/07/25 07:57:12;;;;;;;;;;;;;;;26.38;48.39;98899.31;4922275;29;19941;-66
2022/07/25 07:59:38;;;;;;;;;;;;;;;26.21;48.19;98904.56;4909362;29;19931;-65
2022/07/25 08:02:04;;;;;;;;;;;;;;;25.96;48.55;98896.94;4901277;29;19931;-66
2022/07/25 08:04:30;;;;;;;;;;;;;;;25.76;48.95;98897.38;4926032;29;19931;-65
2022/07/25 08:06:55;;;;;;;;;;;;;;;25.75;48.99;98892.16;4916644;29;20527;-65
2022/07/25 08:09:24;;;;;;;;;;;;;;;25.75;49.12;98897.75;4910863;29;19931;-67
2022/07/25 08:11:51;;;;;;;;;;;;;;;25.82;48.96;98894.97;4908564;29;19938;-65
2022/07/25 08:14:17;;;;;;;;;;;;;;;26.14;48.41;98896.94;4905003;29;20026;-65
2022/07/25 08:16:43;;;;;;;;;;;;;;;26.59;47.43;98892.84;4907279;29;20387;-67
2022/07/25 08:19:09;;;;;;;;;;;;;;;27.01;46.43;98893.06;4910569;29;19938;-64
2022/07/25 08:21:35;;;;;;;;;;;;;;;27.63;45.12;98887.88;4913728;29;19939;-65
2022/07/25 08:24:00;;;;;;;;;;;;;;;27.65;45.01;98888.25;4934153;28;20315;-65
2022/07/25 08:26:26;;;;;;;;;;;;;;;27.50;45.42;98889.53;4925803;29;19931;-65
2022/07/25 08:28:54;;;;;;;;;;;;;;;27.15;46.19;98893.00;4924718;29;19938;-67
2022/07/25 08:31:19;;;;;;;;;;;;;;;27.24;46.14;98897.34;4915232;29;19986;-68
2022/07/25 08:33:45;;;;;;;;;;;;;;;27.83;44.34;98892.91;4923484;29;19935;-67
2022/07/25 08:36:11;;;;;;;;;;;;;;;28.73;42.89;98889.19;4910768;29;19934;-67
2022/07/25 08:38:37;;;;;;;;;;;;;;;29.37;41.22;98896.38;4924080;29;19961;-66
2022/07/25 08:41:02;;;;;;;;;;;;;;;29.58;41.15;98898.84;4916305;29;19931;-66
2022/07/25 08:43:31;;;;;;;;;;;;;;;30.11;40.09;98898.38;4905824;29;19935;-66
2022/07/25 08:45:59;;;;;;;;;;;;;;;30.90;38.27;98894.44;4921845;29;19930;-65
2022/07/25 08:48:25;;;;;;;;;;;;;;;31.87;36.46;98885.75;4916227;29;20032;-66
2022/07/25 08:50:51;;;;;;;;;;;;;;;32.48;35.16;98900.28;4918741;29;19930;-66
2022/07/25 08:53:19;;;;;;;;;;;;;;;32.51;35.04;98896.56;4917041;29;19934;-66
2022/07/25 08:55:46;;;;;;;;;;;;;;;32.72;34.47;98882.25;4910147;29;21374;-65
2022/07/25 08:58:13;;;;;;;;;;;;;;;33.04;33.88;98903.16;4922159;29;20040;-67
2022/07/25 09:00:39;;;;;;;;;;;;;;;32.61;34.37;98902.38;4916613;29;19938;-65
2022/07/25 09:03:07;;;;;;;;;;;;;;;31.03;36.25;98901.00;4904695;29;20029;-67
2022/07/25 09:05:33;;;;;;;;;;;;;;;29.95;38.77;98893.41;4922104;29;19931;-66
2022/07/25 09:08:05;;;;;;;;;;;;;;;29.65;39.46;98889.50;4923602;29;20390;-65
2022/07/25 09:10:31;;;;;;;;;;;;;;;30.84;37.27;98866.75;4919193;29;19938;-66
2022/07/25 09:12:58;;;;;;;;;;;;;;;32.39;35.10;98881.16;4912556;29;19946;-66
2022/07/25 09:15:25;;;;;;;;;;;;;;;33.20;32.61;98891.72;4919594;29;19931;-67
2022/07/25 09:17:51;;;;;;;;;;;;;;;33.16;32.77;98891.06;4905658;29;19931;-68
2022/07/25 09:20:20;;;;;;;;;;;;;;;33.35;32.58;98889.25;4904989;29;20169;-66
2022/07/25 09:22:45;;;;;;;;;;;;;;;33.93;31.53;98890.16;4903654;29;19942;-65
2022/07/25 09:25:21;;;;;;;;;;;;;;;34.11;31.33;98885.16;4921343;29;20318;-65
2022/07/25 09:27:48;;;;;;;;;;;;;;;34.38;30.81;98880.97;4910299;29;19930;-68
2022/07/25 09:30:14;;;;;;;;;;;;;;;34.70;30.26;98879.78;4899764;29;20582;-67
2022/07/25 09:32:40;;;;;;;;;;;;;;;34.70;30.05;98873.31;4917072;29;20407;-65
2022/07/25 09:35:06;;;;;;;;;;;;;;;34.42;29.81;98878.78;4917513;29;19935;-66
2022/07/25 09:37:33;;;;;;;;;;;;;;;33.83;30.88;98882.84;4924694;29;19938;-66
2022/07/25 09:39:59;;;;;;;;;;;;;;;33.03;32.12;98878.94;4925727;29;19931;-68
2022/07/25 09:42:26;;;;;;;;;;;;;;;31.95;34.41;98873.03;4917385;29;19942;-67
2022/07/25 09:45:04;;;;;;;;;;;;;;;31.88;34.34;98878.84;4920834;29;19937;-66
2022/07/25 09:47:31;;;;;;;;;;;;;;;32.78;33.21;98883.28;4924209;29;19966;-68
2022/07/25 09:49:57;;;;;;;;;;;;;;;33.53;32.32;98885.06;4925785;29;20514;-68
2022/07/25 09:52:22;;;;;;;;;;;;;;;33.82;31.65;98886.94;4921938;29;20411;-66
2022/07/25 09:54:50;;;;;;;;;;;;;;;33.94;31.22;98880.41;4919789;29;19931;-66
2022/07/25 09:57:15;;;;;;;;;;;;;;;32.80;32.53;98880.81;4917791;28;19942;-66
2022/07/25 09:59:43;;;;;;;;;;;;;;;31.45;34.71;98883.53;4908284;29;19935;-68
2022/07/25 10:02:11;;;;;;;;;;;;;;;30.21;37.35;98867.63;4910826;29;19932;-67
2022/07/25 10:04:43;;;;;;;;;;;;;;;29.50;38.57;98869.22;4916558;29;19986;-68
2022/07/25 10:07:09;;;;;;;;;;;;;;;30.12;38.24;98891.50;4924138;29;19931;-68
2022/07/25 10:09:40;;;;;;;;;;;;;;;30.35;38.10;98880.63;4935948;29;19941;-68
2022/07/25 10:12:08;;;;;;;;;;;;;;;31.25;36.22;98877.97;4927774;29;20025;-67
2022/07/25 10:14:34;;;;;;;;;;;;;;;32.02;35.42;98883.34;4920401;29;19998;-67
2022/07/25 10:17:02;;;;;;;;;;;;;;;32.54;34.52;98875.09;4914254;29;19935;-66
2022/07/25 10:19:38;;;;;;;;;;;;;;;32.76;34.20;98874.44;4914958;29;20260;-66
2022/07/25 10:22:04;;;;;;;;;;;;;;;33.30;33.37;98880.53;4914663;29;19951;-66
2022/07/25 10:24:32;;;;;;;;;;;;;;;34.16;31.81;98881.72;4919782;29;20426;-67
2022/07/25 10:27:06;;;;;;;;;;;;;;;34.59;31.05;98876.56;4916425;29;20018;-66
2022/07/25 10:29:34;;;;;;;;;;;;;;;34.54;30.98;98869.44;4906434;29;19953;-67
2022/07/25 10:32:05;;;;;;;;;;;;;;;34.38;31.33;98870.41;4912958;29;19958;-67
2022/07/25 10:34:30;;;;;;;;;;;;;;;34.77;30.62;98871.00;4927769;28;19934;-66
2022/07/25 10:36:56;;;;;;;;;;;;;;;35.30;29.82;98868.59;4917170;29;20362;-66
2022/07/25 10:39:22;;;;;;;;;;;;;;;35.83;29.36;98870.47;4909183;29;19931;-68
2022/07/25 10:41:50;;;;;;;;;;;;;;;34.65;30.36;98872.66;4907480;29;19931;-67
2022/07/25 10:44:16;;;;;;;;;;;;;;;32.54;33.76;98866.59;4917011;29;20025;-64
2022/07/25 10:46:43;;;;;;;;;;;;;;;30.67;36.47;98874.38;4925433;29;20033;-66
2022/07/25 10:49:16;;;;;;;;;;;;;;;29.40;38.84;98875.81;4914870;29;19931;-65
2022/07/25 10:51:50;;;;;;;;;;;;;;;28.82;40.09;98879.44;4913631;29;19966;-68
2022/07/25 10:54:16;;;;;;;;;;;;;;;29.86;38.50;98877.06;4929879;29;20333;-67
2022/07/25 10:56:52;;;;;;;;;;;;;;;31.81;35.09;98865.72;4908436;29;20074;-68
2022/07/25 10:59:33;;;;;;;;;;;;;;;33.42;32.87;98870.41;4912425;29;20460;-68
2022/07/25 11:02:00;;;;;;;;;;;;;;;34.54;30.51;98860.13;4918183;29;20428;-66
2022/07/25 11:04:26;;;;;;;;;;;;;;;35.29;29.12;98867.00;4923970;29;20678;-66
2022/07/25 11:06:52;;;;;;;;;;;;;;;36.05;28.28;98855.34;4907910;29;19931;-67
2022/07/25 11:09:20;;;;;;;;;;;;;;;36.36;27.44;98862.91;4924420;28;19986;-66
2022/07/25 11:11:49;;;;;;;;;;;;;;;34.86;29.27;98855.25;4905672;29;19931;-66
2022/07/25 11:14:15;;;;;;;;;;;;;;;33.50;31.37;98863.31;4913229;29;19937;-64
2022/07/25 11:16:41;;;;;;;;;;;;;;;32.84;32.64;98855.22;4568686;29;10000648;-66
2022/07/25 11:19:16;;;;;;;;;;;;;;;33.76;31.11;98841.38;4912813;29;19981;-67
2022/07/25 11:21:43;;;;;;;;;;;;;;;34.44;30.50;98851.56;4912968;29;20410;-66
2022/07/25 11:24:08;;;;;;;;;;;;;;;35.25;29.21;98852.13;4916351;29;20386;-65
2022/07/25 11:26:43;;;;;;;;;;;;;;;35.69;28.26;98846.28;4912128;29;19970;-65
2022/07/25 11:29:17;;;;;;;;;;;;;;;35.97;27.60;98845.50;4918306;29;19930;-67
2022/07/25 11:31:42;;;;;;;;;;;;;;;35.73;27.81;98840.44;4918795;29;19930;-67
2022/07/25 11:34:08;;;;;;;;;;;;;;;35.61;27.81;98853.53;4918832;29;19931;-68
2022/07/25 11:36:35;;;;;;;;;;;;;;;36.53;26.96;98834.94;4925793;29;19937;-66
2022/07/25 11:39:01;;;;;;;;;;;;;;;37.45;25.59;98840.72;4925069;29;20390;-68
2022/07/25 11:41:27;;;;;;;;;;;;;;;37.28;25.77;98834.63;4912501;29;20010;-66
2022/07/25 11:43:53;;;;;;;;;;;;;;;35.05;28.17;98839.94;4906687;29;19931;-66
2022/07/25 11:46:19;;;;;;;;;;;;;;;33.49;30.56;98839.06;4907080;29;20037;-65
2022/07/25 11:48:45;;;;;;;;;;;;;;;32.39;31.82;98837.94;4906596;29;20041;-65
2022/07/25 11:51:14;;;;;;;;;;;;;;;33.85;30.45;98843.50;4915047;29;20488;-67
2022/07/25 11:53:43;;;;;;;;;;;;;;;35.44;28.27;98828.22;4913256;29;19937;-66
2022/07/25 11:56:16;;;;;;;;;;;;;;;36.40;26.99;98829.38;4917239;29;19931;-66
2022/07/25 11:58:43;;;;;;;;;;;;;;;36.87;26.32;98827.22;4913905;29;20461;-65
2022/07/25 12:01:13;;;;;;;;;;;;;;;36.10;27.07;98831.16;4921043;29;20010;-68
2022/07/25 12:03:39;;;;;;;;;;;;;;;35.13;28.33;98823.41;4907921;29;19967;-67
2022/07/25 12:06:06;;;;;;;;;;;;;;;36.04;27.60;98820.41;4906883;29;19931;-68
2022/07/25 12:08:35;;;;;;;;;;;;;;;37.23;25.83;98823.91;4922353;29;20030;-66
2022/07/25 12:11:03;;;;;;;;;;;;;;;37.26;25.71;98826.59;4925811;28;19934;-68
2022/07/25 12:13:29;;;;;;;;;;;;;;;37.72;25.07;98827.59;4906361;29;19986;-68
2022/07/25 12:15:55;;;;;;;;;;;;;;;36.27;26.44;98812.50;4918377;29;20030;-68
2022/07/25 12:18:21;;;;;;;;;;;;;;;33.76;29.79;98821.53;4917875;29;19941;-66
2022/07/25 12:20:47;;;;;;;;;;;;;;;32.45;31.73;98826.88;4913651;29;19931;-67
2022/07/25 12:23:13;;;;;;;;;;;;;;;33.09;31.07;98828.97;4904681;29;19956;-67
2022/07/25 12:25:41;;;;;;;;;;;;;;;33.12;31.28;98822.44;4905654;29;19931;-68
2022/07/25 12:28:09;;;;;;;;;;;;;;;32.60;31.85;98822.38;4907176;29;19931;-68
2022/07/25 12:30:36;;;;;;;;;;;;;;;31.71;33.07;98815.13;4917079;29;19935;-67
2022/07/25 12:33:02;;;;;;;;;;;;;;;31.31;34.07;98810.50;4911817;29;20068;-68
2022/07/25 12:35:28;;;;;;;;;;;;;;;32.75;31.78;98807.78;4919573;29;19996;-66
2022/07/25 12:37:53;;;;;;;;;;;;;;;34.52;29.50;98801.03;4915259;29;19935;-66
2022/07/25 12:40:20;;;;;;;;;;;;;;;35.96;27.65;98798.44;4913138;29;20359;-66
2022/07/25 12:42:46;;;;;;;;;;;;;;;36.95;25.83;98801.25;4937496;29;20042;-66
2022/07/25 12:45:15;;;;;;;;;;;;;;;36.98;25.54;98803.13;4925374;29;20295;-66
2022/07/25 12:47:41;;;;;;;;;;;;;;;36.78;26.06;98803.69;4925498;29;19931;-65